createdAt,value
2019-05-03T00:00:02.674Z,1.00
2019-05-03T00:02:44.573Z,0.93
2019-05-03T00:05:45.304Z,1.40
2019-05-03T00:08:13.786Z,0.97
2019-05-03T00:10:42.599Z,1.00
2019-05-03T00:13:12.681Z,0.90
2019-05-03T00:16:02.579Z,1.03
2019-05-03T00:18:32.625Z,1.00
2019-05-03T00:21:02.121Z,1.07
2019-05-03T00:23:32.438Z,1.27
2019-05-03T00:26:02.636Z,1.27
2019-05-03T00:28:32.165Z,1.07
2019-05-03T00:31:01.955Z,1.00
2019-05-03T00:33:31.788Z,1.33
2019-05-03T00:36:17.376Z,0.97
2019-05-03T00:38:46.569Z,1.20
2019-05-03T00:41:15.048Z,1.30
2019-05-03T00:43:43.530Z,1.30
2019-05-03T00:46:12.626Z,1.03
2019-05-03T00:48:43.038Z,1.13
2019-05-03T00:51:11.818Z,1.30
2019-05-03T00:53:42.261Z,1.27
2019-05-03T00:56:12.130Z,1.30
2019-05-03T00:58:54.165Z,1.30
2019-05-03T01:01:22.683Z,1.30
2019-05-03T01:03:52.670Z,1.30
2019-05-03T01:06:22.370Z,1.07
2019-05-03T01:08:52.230Z,1.13
2019-05-03T01:11:22.227Z,1.10
2019-05-03T01:13:52.240Z,1.23
2019-05-03T01:16:22.623Z,1.30
2019-05-03T01:18:52.308Z,1.20
2019-05-03T01:21:22.563Z,1.10
2019-05-03T01:23:52.667Z,1.00
2019-05-03T01:26:22.724Z,1.00
2019-05-03T01:28:52.162Z,1.10
2019-05-03T01:31:22.744Z,1.10
2019-05-03T01:33:51.748Z,1.00
2019-05-03T01:36:20.329Z,1.27
2019-05-03T01:38:48.825Z,1.03
2019-05-03T01:41:17.244Z,1.00
2019-05-03T01:43:45.755Z,1.47
2019-05-03T01:46:14.272Z,1.30
2019-05-03T01:48:58.887Z,1.10
2019-05-03T01:51:33.021Z,1.30
2019-05-03T01:54:01.758Z,1.17
2019-05-03T01:56:31.634Z,1.10
2019-05-03T01:59:01.835Z,1.17
2019-05-03T02:01:46.620Z,1.20
2019-05-03T02:04:32.249Z,1.20
2019-05-03T02:07:02.305Z,1.20
2019-05-03T02:09:32.225Z,1.00
2019-05-03T02:12:02.141Z,1.10
2019-05-03T02:14:31.747Z,1.10
2019-05-03T02:17:01.850Z,1.20
2019-05-03T02:19:32.542Z,1.00
2019-05-03T02:22:02.719Z,1.10
2019-05-03T02:24:32.636Z,1.10
2019-05-03T02:27:02.144Z,1.50
2019-05-03T02:29:32.595Z,1.20
2019-05-03T02:32:03.245Z,1.07
2019-05-03T02:34:32.694Z,1.97
2019-05-03T02:37:02.909Z,1.20
2019-05-03T02:39:33.524Z,1.00
2019-05-03T02:42:07.903Z,1.17
2019-05-03T02:44:35.533Z,1.23
2019-05-03T02:47:22.935Z,1.50
2019-05-03T02:49:56.377Z,1.20
2019-05-03T02:56:15.164Z,1.10
2019-05-03T02:58:36.508Z,0.97
2019-05-03T03:01:06.803Z,1.40
2019-05-03T03:03:36.261Z,1.33
2019-05-03T03:06:06.687Z,1.10
2019-05-03T03:08:37.239Z,1.50
2019-05-03T03:11:07.402Z,1.40
2019-05-03T03:13:37.426Z,1.07
2019-05-03T03:16:07.233Z,1.20
2019-05-03T03:18:37.486Z,1.30
2019-05-03T03:21:09.954Z,1.10
2019-05-03T03:23:56.148Z,1.40
2019-05-03T03:26:37.485Z,1.37
2019-05-03T03:29:05.293Z,1.53
2019-05-03T03:31:58.854Z,1.20
2019-05-03T03:34:32.064Z,1.37
2019-05-03T03:37:06.475Z,1.40
2019-05-03T03:39:31.428Z,1.90
2019-05-03T03:42:00.520Z,1.50
2019-05-03T03:44:29.160Z,1.30
2019-05-03T03:46:59.352Z,1.77
2019-05-03T03:49:29.285Z,1.30
2019-05-03T03:52:00.241Z,1.20
2019-05-03T03:54:35.279Z,1.40
2019-05-03T03:57:07.884Z,1.30
2019-05-03T03:59:36.322Z,1.47
2019-05-03T04:02:05.996Z,1.30
2019-05-03T04:04:35.885Z,1.40
2019-05-03T04:07:06.577Z,1.13
2019-05-03T04:09:36.589Z,1.40
2019-05-03T04:12:06.063Z,1.33
2019-05-03T04:14:50.605Z,1.33
2019-05-03T04:17:45.605Z,1.43
2019-05-03T04:20:16.474Z,1.40
2019-05-03T04:22:45.369Z,1.37
2019-05-03T04:25:15.336Z,1.60
2019-05-03T04:27:45.666Z,1.40
2019-05-03T04:30:16.547Z,1.30
2019-05-03T04:32:45.467Z,1.43
2019-05-03T04:35:16.410Z,1.30
2019-05-03T04:37:45.310Z,1.30
2019-05-03T04:40:15.619Z,1.40
2019-05-03T04:42:46.466Z,1.30
2019-05-03T04:45:16.473Z,1.60
2019-05-03T04:47:46.342Z,1.33
2019-05-03T04:50:16.343Z,1.87
2019-05-03T04:52:46.407Z,1.50
2019-05-03T04:55:16.022Z,1.80
2019-05-03T04:57:49.761Z,1.60
2019-05-03T05:00:16.236Z,1.73
2019-05-03T05:02:45.763Z,1.87
2019-05-03T05:05:15.459Z,1.60
2019-05-03T05:07:45.620Z,2.00
2019-05-03T05:10:15.289Z,1.97
2019-05-03T05:12:45.731Z,1.63
2019-05-03T05:15:15.646Z,1.67
2019-05-03T05:17:51.117Z,1.70
2019-05-03T05:20:45.458Z,1.53
2019-05-03T05:23:14.763Z,1.73
2019-05-03T05:25:48.982Z,1.43
2019-05-03T05:28:25.012Z,1.57
2019-05-03T05:30:54.610Z,1.67
2019-05-03T05:33:25.193Z,1.53
2019-05-03T05:35:54.710Z,2.10
2019-05-03T05:38:25.341Z,3.00
2019-05-03T05:40:55.461Z,3.13
2019-05-03T05:43:25.522Z,2.70
2019-05-03T05:45:55.360Z,2.70
2019-05-03T05:48:30.573Z,2.70
2019-05-03T05:50:59.057Z,2.07
2019-05-03T05:53:27.481Z,2.23
2019-05-03T05:56:15.796Z,2.23
2019-05-03T05:59:00.797Z,2.67
2019-05-03T06:01:32.837Z,2.40
2019-05-03T06:04:01.252Z,2.20
2019-05-03T06:06:45.012Z,2.70
2019-05-03T06:09:35.531Z,2.93
2019-05-03T06:12:18.672Z,2.50
2019-05-03T06:14:54.780Z,2.47
2019-05-03T06:17:41.159Z,2.97
2019-05-03T06:20:18.249Z,2.20
2019-05-03T06:22:54.927Z,2.67
2019-05-03T06:25:36.781Z,2.80
2019-05-03T06:28:19.911Z,2.53
2019-05-03T06:30:46.933Z,2.60
2019-05-03T06:33:15.767Z,2.70
2019-05-03T06:35:44.557Z,2.33
2019-05-03T06:38:15.232Z,2.07
2019-05-03T06:40:44.748Z,2.60
2019-05-03T06:43:13.288Z,2.57
2019-05-03T06:45:49.071Z,2.20
2019-05-03T06:48:15.187Z,2.40
2019-05-03T06:50:45.267Z,2.67
2019-05-03T06:53:15.435Z,2.63
2019-05-03T06:55:45.569Z,3.03
2019-05-03T06:58:15.298Z,3.47
2019-05-03T07:01:11.310Z,2.50
2019-05-03T07:03:59.425Z,3.00
2019-05-03T07:06:55.131Z,2.97
2019-05-03T07:09:44.454Z,3.10
2019-05-03T07:12:14.702Z,3.20
2019-05-03T07:14:45.017Z,3.70
2019-05-03T07:17:14.529Z,2.83
2019-05-03T07:19:43.195Z,2.77
2019-05-03T07:22:11.613Z,2.40
2019-05-03T07:24:40.954Z,2.77
2019-05-03T07:27:09.744Z,2.10
2019-05-03T07:29:38.328Z,2.10
2019-05-03T07:32:06.860Z,2.30
2019-05-03T07:34:35.341Z,2.40
2019-05-03T07:37:05.753Z,2.10
2019-05-03T07:39:34.960Z,2.53
2019-05-03T07:42:05.253Z,1.97
2019-05-03T07:44:34.775Z,2.10
2019-05-03T07:47:04.732Z,2.30
2019-05-03T07:49:35.523Z,1.77
2019-05-03T07:52:05.580Z,1.97
2019-05-03T07:54:34.907Z,1.77
2019-05-03T07:57:25.500Z,1.70
2019-05-03T07:59:55.662Z,2.20
2019-05-03T08:02:27.249Z,1.90
2019-05-03T08:04:54.976Z,2.10
2019-05-03T08:07:25.527Z,1.93
2019-05-03T08:09:55.539Z,1.80
2019-05-03T08:12:24.787Z,1.90
2019-05-03T08:14:55.208Z,1.97
2019-05-03T08:17:25.474Z,1.50
2019-05-03T08:19:55.215Z,1.83
2019-05-03T08:22:25.513Z,1.83
2019-05-03T08:24:55.507Z,1.63
2019-05-03T08:27:25.113Z,1.80
2019-05-03T08:29:55.736Z,1.70
2019-05-03T08:32:44.530Z,1.80
2019-05-03T08:35:38.171Z,1.50
2019-05-03T08:38:07.126Z,1.40
2019-05-03T08:40:41.225Z,1.30
2019-05-03T08:43:09.742Z,1.60
2019-05-03T08:45:38.250Z,1.73
2019-05-03T08:48:06.700Z,1.67
2019-05-03T08:50:35.241Z,1.80
2019-05-03T08:53:05.076Z,2.30
2019-05-03T08:55:35.230Z,1.60
2019-05-03T08:58:05.163Z,1.77
2019-05-03T09:00:35.769Z,2.23
2019-05-03T09:03:05.234Z,1.63
2019-05-03T09:05:36.016Z,1.97
2019-05-03T09:08:05.581Z,2.10
2019-05-03T09:10:54.864Z,1.90
2019-05-03T09:13:24.979Z,1.73
2019-05-03T09:15:55.267Z,1.90
2019-05-03T09:18:25.803Z,2.33
2019-05-03T09:20:55.517Z,1.43
2019-05-03T09:23:26.053Z,1.73
2019-05-03T09:25:54.871Z,1.73
2019-05-03T09:28:25.402Z,1.70
2019-05-03T09:30:55.234Z,2.00
2019-05-03T09:33:24.858Z,2.30
2019-05-03T09:35:55.003Z,1.60
2019-05-03T09:38:25.513Z,1.90
2019-05-03T09:40:54.617Z,1.90
2019-05-03T09:43:25.048Z,2.20
2019-05-03T09:45:54.652Z,2.00
2019-05-03T09:48:25.287Z,1.90
2019-05-03T09:50:55.431Z,1.60
2019-05-03T09:53:26.044Z,1.60
2019-05-03T09:55:55.528Z,1.90
2019-05-03T09:58:26.207Z,1.83
2019-05-03T10:00:55.547Z,2.13
2019-05-03T10:03:24.454Z,1.67
2019-05-03T10:05:55.227Z,1.80
2019-05-03T10:08:25.362Z,1.90
2019-05-03T10:11:12.003Z,1.80
2019-05-03T10:13:41.958Z,1.97
2019-05-03T10:16:10.825Z,1.50
2019-05-03T10:18:39.301Z,1.83
2019-05-03T10:21:07.745Z,1.77
2019-05-03T10:23:45.221Z,1.80
2019-05-03T10:26:15.000Z,1.70
2019-05-03T10:28:44.316Z,1.50
2019-05-03T10:31:12.846Z,1.87
2019-05-03T10:33:58.452Z,1.50
2019-05-03T10:36:26.882Z,1.43
2019-05-03T10:38:55.562Z,1.50
2019-05-03T10:41:25.084Z,1.70
2019-05-03T10:43:55.622Z,1.17
2019-05-03T10:46:25.061Z,1.20
2019-05-03T10:48:55.594Z,1.03
2019-05-03T10:51:26.573Z,1.20
2019-05-03T10:53:58.089Z,1.40
2019-05-03T10:56:45.869Z,1.00
2019-05-03T10:59:14.848Z,1.20
2019-05-03T11:02:01.493Z,1.13
2019-05-03T11:04:30.903Z,1.20
2019-05-03T11:06:59.407Z,1.00
2019-05-03T11:09:28.065Z,1.10
2019-05-03T11:11:56.507Z,1.23
2019-05-03T11:14:25.523Z,1.20
2019-05-03T11:16:55.263Z,1.17
2019-05-03T11:19:25.419Z,1.10
2019-05-03T11:21:54.764Z,1.10
2019-05-03T11:24:27.203Z,1.40
2019-05-03T11:26:56.250Z,1.23
2019-05-03T11:29:24.851Z,1.00
2019-05-03T11:32:08.326Z,0.90
2019-05-03T11:34:40.669Z,0.93
2019-05-03T11:37:28.446Z,0.83
2019-05-03T11:39:56.941Z,1.00
2019-05-03T11:42:25.379Z,0.80
2019-05-03T11:44:53.865Z,1.00
2019-05-03T11:47:24.988Z,0.83
2019-05-03T11:49:54.584Z,1.10
2019-05-03T11:52:25.684Z,0.90
2019-05-03T11:54:55.262Z,0.60
2019-05-03T11:57:26.497Z,0.77
2019-05-03T11:59:55.299Z,0.80
2019-05-03T12:02:44.747Z,0.70
2019-05-03T12:05:21.942Z,0.70
2019-05-03T12:07:50.449Z,0.70
2019-05-03T12:10:32.064Z,0.83
2019-05-03T12:12:55.356Z,0.90
2019-05-03T12:15:24.129Z,0.90
2019-05-03T12:17:58.789Z,0.80
2019-05-03T12:20:28.482Z,1.00
2019-05-03T12:22:57.141Z,0.90
2019-05-03T12:25:26.667Z,0.80
2019-05-03T12:27:55.693Z,0.70
2019-05-03T12:30:27.459Z,0.80
2019-05-03T12:32:54.714Z,0.97
2019-05-03T12:35:24.662Z,1.17
2019-05-03T12:37:55.533Z,0.90
2019-05-03T12:40:25.492Z,0.80
2019-05-03T12:42:55.297Z,0.90
2019-05-03T12:45:24.882Z,1.20
2019-05-03T12:47:55.662Z,0.80
2019-05-03T12:50:25.199Z,0.60
2019-05-03T12:52:55.397Z,0.63
2019-05-03T12:55:24.771Z,0.40
2019-05-03T12:57:55.366Z,0.50
2019-05-03T13:00:41.903Z,0.60
2019-05-03T13:03:15.328Z,0.50
2019-05-03T13:05:44.954Z,0.57
2019-05-03T13:08:36.073Z,0.70
2019-05-03T13:11:05.299Z,0.50
2019-05-03T13:13:35.826Z,0.60
2019-05-03T13:16:05.067Z,0.70
2019-05-03T13:18:35.047Z,0.60
2019-05-03T13:21:05.735Z,0.77
2019-05-03T13:23:35.404Z,0.50
2019-05-03T13:26:05.598Z,0.70
2019-05-03T13:28:34.575Z,0.60
2019-05-03T13:31:05.440Z,0.60
2019-05-03T13:33:34.840Z,0.57
2019-05-03T13:36:03.925Z,0.60
2019-05-03T13:38:34.697Z,0.50
2019-05-03T13:41:02.670Z,0.60
2019-05-03T13:43:31.174Z,0.40
2019-05-03T13:45:59.633Z,0.60
2019-05-03T13:48:41.678Z,0.40
2019-05-03T13:50:58.765Z,0.50
2019-05-03T13:53:27.265Z,0.47
2019-05-03T13:55:55.704Z,0.50
2019-05-03T13:58:26.203Z,0.90
2019-05-03T14:00:55.120Z,0.50
2019-05-03T14:03:23.881Z,0.70
2019-05-03T14:05:52.319Z,0.50
2019-05-03T14:08:20.930Z,0.50
2019-05-03T14:10:49.467Z,0.40
2019-05-03T14:13:17.962Z,0.50
2019-05-03T14:15:46.400Z,0.50
2019-05-03T14:18:15.575Z,0.50
2019-05-03T14:21:05.031Z,0.40
2019-05-03T14:23:52.637Z,0.47
2019-05-03T14:26:21.207Z,0.50
2019-05-03T14:28:49.702Z,0.60
2019-05-03T14:31:18.241Z,0.50
2019-05-03T14:33:47.233Z,0.30
2019-05-03T14:36:16.112Z,0.57
2019-05-03T14:38:46.912Z,0.50
2019-05-03T14:41:15.153Z,0.30
2019-05-03T14:43:43.814Z,0.30
2019-05-03T14:46:12.241Z,0.30
2019-05-03T14:48:40.733Z,0.30
2019-05-03T14:51:09.169Z,0.40
2019-05-03T14:53:37.652Z,0.40
2019-05-03T14:56:14.958Z,0.40
2019-05-03T14:59:02.953Z,0.30
2019-05-03T15:01:37.650Z,0.20
2019-05-03T15:04:06.252Z,0.40
2019-05-03T15:06:35.432Z,0.60
2019-05-03T15:09:06.698Z,1.50
2019-05-03T15:11:35.142Z,0.90
2019-05-03T15:14:05.506Z,1.17
2019-05-03T15:16:34.378Z,1.07
2019-05-03T15:19:03.100Z,1.10
2019-05-03T15:21:31.533Z,0.87
2019-05-03T15:24:00.129Z,0.30
2019-05-03T15:26:28.576Z,0.30
2019-05-03T15:28:57.018Z,0.30
2019-05-03T15:31:25.513Z,0.47
2019-05-03T15:33:55.492Z,0.27
2019-05-03T15:36:24.257Z,0.40
2019-05-03T15:38:52.705Z,0.50
2019-05-03T15:41:21.208Z,0.33
2019-05-03T15:44:14.957Z,0.27
2019-05-03T15:46:50.501Z,0.30
2019-05-03T15:49:19.340Z,0.20
2019-05-03T15:51:47.829Z,0.30
2019-05-03T15:54:16.276Z,0.33
2019-05-03T15:56:44.953Z,0.30
2019-05-03T15:59:14.961Z,0.30
2019-05-03T16:01:44.210Z,0.30
2019-05-03T16:04:14.240Z,0.20
2019-05-03T16:06:44.672Z,0.20
2019-05-03T16:09:15.123Z,0.20
2019-05-03T16:11:45.093Z,0.30
2019-05-03T16:14:15.287Z,0.30
2019-05-03T16:16:45.126Z,0.20
2019-05-03T16:19:14.745Z,0.30
2019-05-03T16:21:45.205Z,0.40
2019-05-03T16:24:15.441Z,0.30
2019-05-03T16:27:04.890Z,0.30
2019-05-03T16:29:33.382Z,0.50
2019-05-03T16:32:01.988Z,0.40
2019-05-03T16:34:30.417Z,0.50
2019-05-03T16:36:58.902Z,0.50
2019-05-03T16:39:27.330Z,0.30
2019-05-03T16:41:55.943Z,0.53
2019-05-03T16:44:24.450Z,0.30
2019-05-03T16:46:53.016Z,0.30
2019-05-03T16:49:21.458Z,0.27
2019-05-03T16:51:50.401Z,0.23
2019-05-03T16:54:18.820Z,0.40
2019-05-03T16:56:47.482Z,0.40
2019-05-03T16:59:17.504Z,0.30
2019-05-03T17:01:46.207Z,0.30
2019-05-03T17:04:45.070Z,0.30
2019-05-03T17:07:41.848Z,0.20
2019-05-03T17:10:29.785Z,0.30
2019-05-03T17:12:58.753Z,0.37
2019-05-03T17:15:28.841Z,0.50
2019-05-03T17:17:57.356Z,0.30
2019-05-03T17:20:25.789Z,0.40
2019-05-03T17:22:55.497Z,0.40
2019-05-03T17:25:24.547Z,0.40
2019-05-03T17:27:54.304Z,0.30
2019-05-03T17:30:32.737Z,0.40
2019-05-03T17:32:55.059Z,0.40
2019-05-03T17:35:25.166Z,0.20
2019-05-03T17:37:54.623Z,0.30
2019-05-03T17:40:45.433Z,0.30
2019-05-03T17:43:29.557Z,0.40
2019-05-03T17:45:58.800Z,0.50
2019-05-03T17:48:27.301Z,0.43
2019-05-03T17:50:55.772Z,0.40
2019-05-03T17:53:54.328Z,0.40
2019-05-03T17:56:45.249Z,0.40
2019-05-03T17:59:24.335Z,0.40
2019-05-03T18:02:24.073Z,0.50
2019-05-03T18:05:15.313Z,0.50
2019-05-03T18:08:09.030Z,0.40
2019-05-03T18:10:38.857Z,0.60
2019-05-03T18:13:07.373Z,0.50
2019-05-03T18:15:36.029Z,0.50
2019-05-03T18:18:05.289Z,0.40
2019-05-03T18:20:34.617Z,0.60
2019-05-03T18:23:04.992Z,0.43
2019-05-03T18:25:35.332Z,0.40
2019-05-03T18:28:03.697Z,0.60
2019-05-03T18:30:32.202Z,0.60
2019-05-03T18:33:01.413Z,0.43
2019-05-03T18:35:30.473Z,0.63
2019-05-03T18:37:58.821Z,0.40
2019-05-03T18:40:27.829Z,0.50
2019-05-03T18:43:01.935Z,0.40
2019-05-03T18:45:47.357Z,0.60
2019-05-03T18:48:15.789Z,0.50
2019-05-03T18:50:45.609Z,0.73
2019-05-03T18:53:15.065Z,0.80
2019-05-03T18:55:44.493Z,0.90
2019-05-03T18:58:14.759Z,0.60
2019-05-03T19:00:43.292Z,0.60
2019-05-03T19:03:11.825Z,0.50
2019-05-03T19:05:42.205Z,0.57
2019-05-03T19:08:19.198Z,0.70
2019-05-03T19:10:55.293Z,0.40
2019-05-03T19:13:28.427Z,0.60
2019-05-03T19:15:58.779Z,0.60
2019-05-03T19:18:30.170Z,0.50
2019-05-03T19:20:59.523Z,0.60
2019-05-03T19:23:29.398Z,0.60
2019-05-03T19:25:59.230Z,0.67
2019-05-03T19:28:28.836Z,0.60
2019-05-03T19:30:58.809Z,0.83
2019-05-03T19:33:29.677Z,0.60
2019-05-03T19:36:00.320Z,0.60
2019-05-03T19:38:30.816Z,0.60
2019-05-03T19:41:00.575Z,0.60
2019-05-03T19:43:30.346Z,0.60
2019-05-03T19:45:59.930Z,0.60
2019-05-03T19:48:29.999Z,0.60
2019-05-03T19:51:00.291Z,0.70
2019-05-03T19:53:49.569Z,0.60
2019-05-03T19:56:20.908Z,0.50
2019-05-03T19:58:55.209Z,0.50
2019-05-03T20:01:44.250Z,0.50
2019-05-03T20:04:33.168Z,0.53
2019-05-03T20:07:21.225Z,0.50
2019-05-03T20:09:51.440Z,0.57
2019-05-03T20:12:21.328Z,0.80
2019-05-03T20:14:51.233Z,0.50
2019-05-03T20:17:20.927Z,0.60
2019-05-03T20:19:50.523Z,0.80
2019-05-03T20:22:20.196Z,0.57
2019-05-03T20:24:49.858Z,0.70
2019-05-03T20:27:19.817Z,0.73
2019-05-03T20:29:49.323Z,0.80
2019-05-03T20:32:19.152Z,0.60
2019-05-03T20:34:48.586Z,0.60
2019-05-03T20:37:18.483Z,0.80
2019-05-03T20:39:47.898Z,0.60
2019-05-03T20:42:36.543Z,0.60
2019-05-03T20:45:07.942Z,0.60
2019-05-03T20:47:45.368Z,0.47
2019-05-03T20:50:15.687Z,0.67
2019-05-03T20:52:44.889Z,0.60
2019-05-03T20:55:15.513Z,0.70
2019-05-03T20:57:44.789Z,0.40
2019-05-03T21:00:16.242Z,0.60
2019-05-03T21:02:53.415Z,0.70
2019-05-03T21:05:26.771Z,0.63
2019-05-03T21:07:45.905Z,0.53
2019-05-03T21:10:16.186Z,0.93
2019-05-03T21:12:44.700Z,0.53
2019-05-03T21:15:22.258Z,0.50
2019-05-03T21:17:59.588Z,0.60
2019-05-03T21:20:46.113Z,0.77
2019-05-03T21:23:15.516Z,0.50
2019-05-03T21:26:06.469Z,0.50
2019-05-03T21:28:26.143Z,0.60
2019-05-03T21:30:54.983Z,0.50
2019-05-03T21:33:23.487Z,0.53
2019-05-03T21:35:51.995Z,0.40
2019-05-03T21:38:20.430Z,0.50
2019-05-03T21:40:49.121Z,0.40
2019-05-03T21:43:17.927Z,0.50
2019-05-03T21:45:51.227Z,0.60
2019-05-03T21:48:24.945Z,0.53
2019-05-03T21:50:53.605Z,0.50
2019-05-03T21:53:22.033Z,0.40
2019-05-03T21:55:50.547Z,0.60
2019-05-03T21:58:18.986Z,0.40
2019-05-03T22:01:12.625Z,0.63
2019-05-03T22:03:41.274Z,0.40
2019-05-03T22:06:10.186Z,0.50
2019-05-03T22:08:38.621Z,0.63
2019-05-03T22:11:07.179Z,0.60
2019-05-03T22:13:36.563Z,0.60
2019-05-03T22:16:24.667Z,0.50
2019-05-03T22:18:54.619Z,0.60
2019-05-03T22:21:36.874Z,1.47
2019-05-03T22:24:30.114Z,0.40
2019-05-03T22:27:06.891Z,0.60
2019-05-03T22:29:35.617Z,0.60
2019-05-03T22:32:05.290Z,0.50
2019-05-03T22:34:34.859Z,0.50
2019-05-03T22:37:03.661Z,0.50
2019-05-03T22:39:32.088Z,0.60
2019-05-03T22:42:00.592Z,0.53
2019-05-03T22:44:29.023Z,0.40
2019-05-03T22:46:57.534Z,0.50
2019-05-03T22:49:26.229Z,0.50
2019-05-03T22:51:54.771Z,0.50
2019-05-03T22:54:24.542Z,0.50
2019-05-03T22:56:55.239Z,0.50
2019-05-03T22:59:25.192Z,0.50
2019-05-03T23:01:54.657Z,0.60
2019-05-03T23:04:25.186Z,0.40
2019-05-03T23:06:55.614Z,0.50
2019-05-03T23:09:24.891Z,0.97
2019-05-03T23:11:55.210Z,0.57
2019-05-03T23:14:25.520Z,0.50
2019-05-03T23:16:54.296Z,0.60
2019-05-03T23:19:22.722Z,0.50
2019-05-03T23:22:12.168Z,0.50
2019-05-03T23:24:40.608Z,0.47
2019-05-03T23:27:09.113Z,0.60
2019-05-03T23:29:37.549Z,0.50
2019-05-03T23:32:06.147Z,0.50
2019-05-03T23:34:35.161Z,0.43
2019-05-03T23:37:05.483Z,0.67
2019-05-03T23:39:34.119Z,0.50
2019-05-03T23:42:04.989Z,0.60
2019-05-03T23:44:35.156Z,0.50
2019-05-03T23:47:21.030Z,0.40
2019-05-03T23:49:49.482Z,0.70
2019-05-03T23:52:35.230Z,0.63
2019-05-03T23:55:07.522Z,0.60
2019-05-03T23:57:35.983Z,0.50
